createdAt,value
2023-04-23T00:00:23.398Z,22.12
2023-04-23T00:01:22.745Z,21.75
2023-04-23T00:02:23.570Z,21.31
2023-04-23T00:03:22.929Z,21.14
2023-04-23T00:04:23.284Z,20.97
2023-04-23T00:05:22.954Z,20.89
2023-04-23T00:06:23.462Z,20.87
2023-04-23T00:07:23.403Z,20.70
2023-04-23T00:08:22.741Z,20.50
2023-04-23T00:09:22.670Z,20.48
2023-04-23T00:10:22.773Z,20.03
2023-04-23T00:11:22.800Z,19.66
2023-04-23T00:12:22.621Z,19.30
2023-04-23T00:13:22.816Z,19.03
2023-04-23T00:14:22.860Z,18.86
2023-04-23T00:15:22.916Z,18.43
2023-04-23T00:16:22.793Z,18.32
2023-04-23T00:17:23.026Z,18.04
2023-04-23T00:18:23.030Z,17.87
2023-04-23T00:19:22.534Z,17.81
2023-04-23T00:20:23.086Z,17.67
2023-04-23T00:21:23.098Z,17.72
2023-04-23T00:22:23.148Z,17.41
2023-04-23T00:23:22.760Z,17.40
2023-04-23T00:24:23.181Z,17.37
2023-04-23T00:25:22.447Z,17.45
2023-04-23T00:26:22.900Z,17.59
2023-04-23T00:27:22.454Z,17.67
2023-04-23T00:28:22.488Z,17.90
2023-04-23T00:29:22.431Z,17.90
2023-04-23T00:30:22.386Z,17.95
2023-04-23T00:31:22.420Z,17.99
2023-04-23T00:32:22.450Z,18.04
2023-04-23T00:33:22.380Z,17.98
2023-04-23T00:34:22.348Z,17.85
2023-04-23T00:35:22.426Z,17.85
2023-04-23T00:36:22.334Z,17.76
2023-04-23T00:37:22.331Z,17.57
2023-04-23T00:38:22.435Z,17.47
2023-04-23T00:39:22.296Z,17.38
2023-04-23T00:40:22.282Z,17.24
2023-04-23T00:41:22.275Z,17.16
2023-04-23T00:42:22.260Z,17.03
2023-04-23T00:43:22.232Z,16.88
2023-04-23T00:44:22.423Z,16.69
2023-04-23T00:45:22.210Z,16.52
2023-04-23T00:46:22.514Z,16.35
2023-04-23T00:47:22.288Z,16.10
2023-04-23T00:48:22.449Z,15.86
2023-04-23T00:49:22.168Z,15.84
2023-04-23T00:50:22.256Z,15.74
2023-04-23T00:51:22.449Z,15.68
2023-04-23T00:52:22.135Z,15.64
2023-04-23T00:53:22.138Z,15.56
2023-04-23T00:54:22.131Z,15.38
2023-04-23T00:55:22.095Z,15.28
2023-04-23T00:56:22.152Z,15.27
2023-04-23T00:57:22.100Z,15.13
2023-04-23T00:58:22.101Z,15.03
2023-04-23T00:59:22.049Z,15.02
2023-04-23T01:00:22.054Z,15.00
2023-04-23T01:01:22.241Z,15.00
2023-04-23T01:02:22.388Z,14.97
2023-04-23T01:03:22.315Z,15.00
2023-04-23T01:04:22.066Z,15.01
2023-04-23T01:05:21.980Z,14.97
2023-04-23T01:06:21.963Z,14.96
2023-04-23T01:07:21.950Z,14.84
2023-04-23T01:08:21.966Z,14.81
2023-04-23T01:09:22.297Z,14.72
2023-04-23T01:10:22.163Z,14.59
2023-04-23T01:11:21.902Z,14.44
2023-04-23T01:12:22.236Z,14.35
2023-04-23T01:13:21.922Z,14.26
2023-04-23T01:14:21.889Z,14.07
2023-04-23T01:15:21.859Z,13.94
2023-04-23T01:16:21.881Z,13.71
2023-04-23T01:17:21.865Z,13.52
2023-04-23T01:18:22.405Z,13.37
2023-04-23T01:19:21.840Z,13.17
2023-04-23T01:20:22.128Z,13.03
2023-04-23T01:21:21.783Z,12.92
2023-04-23T01:22:21.810Z,12.74
2023-04-23T01:23:21.789Z,12.59
2023-04-23T01:24:22.107Z,12.49
2023-04-23T01:25:21.744Z,12.41
2023-04-23T01:26:22.467Z,12.28
2023-04-23T01:27:21.726Z,12.17
2023-04-23T01:28:21.758Z,12.08
2023-04-23T01:29:21.701Z,12.02
2023-04-23T01:30:21.705Z,11.99
2023-04-23T01:31:21.775Z,11.83
2023-04-23T01:32:21.697Z,11.82
2023-04-23T01:33:22.457Z,11.73
2023-04-23T01:34:22.432Z,11.69
2023-04-23T01:35:21.637Z,11.65
2023-04-23T01:36:22.468Z,11.57
2023-04-23T01:37:21.605Z,11.49
2023-04-23T01:38:21.758Z,11.49
2023-04-23T01:39:21.766Z,11.43
2023-04-23T01:40:21.589Z,11.43
2023-04-23T01:41:21.604Z,11.38
2023-04-23T01:42:21.606Z,11.33
2023-04-23T01:43:21.560Z,11.36
2023-04-23T01:44:21.542Z,11.28
2023-04-23T01:45:21.707Z,11.26
2023-04-23T01:46:21.545Z,11.26
2023-04-23T01:47:21.517Z,11.22
2023-04-23T01:48:21.507Z,11.26
2023-04-23T01:49:21.474Z,11.19
2023-04-23T01:50:21.472Z,11.18
2023-04-23T01:51:21.430Z,11.20
2023-04-23T01:52:21.527Z,11.19
2023-04-23T01:53:21.441Z,11.16
2023-04-23T01:54:21.832Z,11.13
2023-04-23T01:55:21.395Z,11.14
2023-04-23T01:56:21.397Z,11.15
2023-04-23T01:57:21.481Z,11.18
2023-04-23T01:58:21.489Z,11.08
2023-04-23T01:59:21.368Z,11.10
2023-04-23T02:00:22.143Z,11.09
2023-04-23T02:01:21.357Z,11.08
2023-04-23T02:02:21.353Z,11.08
2023-04-23T02:03:22.265Z,11.01
2023-04-23T02:04:21.411Z,11.06
2023-04-23T02:05:21.501Z,11.03
2023-04-23T02:06:21.489Z,11.05
2023-04-23T02:07:21.261Z,10.95
2023-04-23T02:08:21.509Z,10.98
2023-04-23T02:09:21.490Z,11.03
2023-04-23T02:10:21.364Z,11.00
2023-04-23T02:11:21.197Z,11.01
2023-04-23T02:12:21.501Z,11.02
2023-04-23T02:13:21.186Z,11.03
2023-04-23T02:14:21.218Z,11.02
2023-04-23T02:15:21.251Z,11.03
2023-04-23T02:16:21.236Z,11.07
2023-04-23T02:17:21.176Z,11.03
2023-04-23T02:18:21.203Z,11.05
2023-04-23T02:19:21.137Z,11.05
2023-04-23T02:20:21.167Z,11.07
2023-04-23T02:21:21.283Z,11.10
2023-04-23T02:22:21.330Z,11.12
2023-04-23T02:23:21.313Z,11.07
2023-04-23T02:24:21.351Z,11.09
2023-04-23T02:25:21.051Z,11.10
2023-04-23T02:26:21.059Z,11.08
2023-04-23T02:27:21.027Z,11.10
2023-04-23T02:28:21.406Z,11.12
2023-04-23T02:29:21.004Z,11.10
2023-04-23T02:30:21.075Z,11.14
2023-04-23T02:31:21.079Z,11.12
2023-04-23T02:32:21.014Z,11.10
2023-04-23T02:33:20.967Z,11.14
2023-04-23T02:34:20.964Z,11.18
2023-04-23T02:35:20.927Z,11.18
2023-04-23T02:36:20.983Z,11.14
2023-04-23T02:37:21.151Z,11.18
2023-04-23T02:38:20.963Z,11.15
2023-04-23T02:39:20.890Z,11.20
2023-04-23T02:40:21.398Z,11.15
2023-04-23T02:41:20.862Z,11.19
2023-04-23T02:42:20.901Z,11.14
2023-04-23T02:43:21.493Z,11.15
2023-04-23T02:44:20.957Z,11.14
2023-04-23T02:45:20.960Z,11.21
2023-04-23T02:46:21.547Z,11.15
2023-04-23T02:47:20.868Z,11.20
2023-04-23T02:48:21.307Z,11.21
2023-04-23T02:49:21.525Z,11.15
2023-04-23T02:50:20.791Z,11.19
2023-04-23T02:51:20.742Z,11.16
2023-04-23T02:52:21.545Z,11.19
2023-04-23T02:53:20.739Z,11.18
2023-04-23T02:54:21.536Z,11.20
2023-04-23T02:55:21.060Z,11.21
2023-04-23T02:56:20.717Z,11.22
2023-04-23T02:57:20.702Z,11.25
2023-04-23T02:58:20.686Z,11.26
2023-04-23T02:59:20.682Z,11.26
2023-04-23T03:00:20.675Z,11.24
2023-04-23T03:01:21.430Z,11.27
2023-04-23T03:02:20.696Z,11.33
2023-04-23T03:03:20.772Z,11.26
2023-04-23T03:04:21.389Z,11.27
2023-04-23T03:05:20.579Z,11.30
2023-04-23T03:06:20.576Z,11.30
2023-04-23T03:07:20.556Z,11.32
2023-04-23T03:08:21.515Z,11.31
2023-04-23T03:09:20.553Z,11.32
2023-04-23T03:10:20.586Z,11.35
2023-04-23T03:11:20.557Z,11.36
2023-04-23T03:12:20.537Z,11.38
2023-04-23T03:13:20.549Z,11.38
2023-04-23T03:14:20.505Z,11.39
2023-04-23T03:15:20.464Z,11.42
2023-04-23T03:16:20.519Z,11.39
2023-04-23T03:17:20.443Z,11.43
2023-04-23T03:18:20.459Z,11.42
2023-04-23T03:19:20.428Z,11.44
2023-04-23T03:20:20.432Z,11.44
2023-04-23T03:21:20.399Z,11.43
2023-04-23T03:22:20.408Z,11.47
2023-04-23T03:23:20.407Z,11.47
2023-04-23T03:24:20.560Z,11.46
2023-04-23T03:25:20.559Z,11.51
2023-04-23T03:26:20.369Z,11.52
2023-04-23T03:27:20.332Z,11.55
2023-04-23T03:28:20.556Z,11.56
2023-04-23T03:29:20.316Z,11.56
2023-04-23T03:30:20.305Z,11.60
2023-04-23T03:31:20.558Z,11.56
2023-04-23T03:32:20.332Z,11.64
2023-04-23T03:33:20.295Z,11.58
2023-04-23T03:34:20.284Z,11.66
2023-04-23T03:35:20.239Z,11.67
2023-04-23T03:36:20.238Z,11.68
2023-04-23T03:37:20.227Z,11.71
2023-04-23T03:38:20.228Z,11.75
2023-04-23T03:39:20.205Z,11.77
2023-04-23T03:40:20.210Z,11.80
2023-04-23T03:41:20.386Z,11.85
2023-04-23T03:42:20.169Z,11.91
2023-04-23T03:43:20.145Z,11.96
2023-04-23T03:44:20.195Z,11.99
2023-04-23T03:45:20.103Z,12.09
2023-04-23T03:46:20.217Z,12.13
2023-04-23T03:47:20.235Z,12.20
2023-04-23T03:48:20.105Z,12.21
2023-04-23T03:49:20.079Z,12.27
2023-04-23T03:50:20.091Z,12.33
2023-04-23T03:51:20.048Z,12.34
2023-04-23T03:52:20.051Z,12.42
2023-04-23T03:53:20.040Z,12.44
2023-04-23T03:54:20.064Z,12.50
2023-04-23T03:55:20.006Z,12.56
2023-04-23T03:56:20.012Z,12.64
2023-04-23T03:57:20.006Z,12.71
2023-04-23T03:58:20.004Z,12.75
2023-04-23T03:59:19.985Z,12.77
2023-04-23T04:00:19.993Z,12.82
2023-04-23T04:01:19.937Z,12.92
2023-04-23T04:02:20.061Z,13.00
2023-04-23T04:03:20.074Z,13.10
2023-04-23T04:04:20.351Z,13.18
2023-04-23T04:05:20.053Z,13.23
2023-04-23T04:06:19.896Z,13.35
2023-04-23T04:07:19.869Z,13.33
2023-04-23T04:08:19.925Z,13.39
2023-04-23T04:09:19.876Z,13.44
2023-04-23T04:10:19.853Z,13.50
2023-04-23T04:11:19.805Z,13.52
2023-04-23T04:12:19.822Z,13.53
2023-04-23T04:13:20.300Z,13.57
2023-04-23T04:14:19.877Z,13.57
2023-04-23T04:15:19.806Z,13.55
2023-04-23T04:16:19.799Z,13.57
2023-04-23T04:17:20.477Z,13.63
2023-04-23T04:18:19.773Z,13.59
2023-04-23T04:19:19.758Z,13.61
2023-04-23T04:20:20.548Z,13.57
2023-04-23T04:21:19.704Z,13.57
2023-04-23T04:22:19.703Z,13.47
2023-04-23T04:23:19.985Z,13.44
2023-04-23T04:24:19.712Z,13.38
2023-04-23T04:25:19.673Z,13.33
2023-04-23T04:26:19.672Z,13.28
2023-04-23T04:27:19.647Z,13.22
2023-04-23T04:28:19.625Z,13.20
2023-04-23T04:29:19.626Z,13.19
2023-04-23T04:30:19.612Z,13.16
2023-04-23T04:31:19.610Z,13.19
2023-04-23T04:32:19.670Z,13.14
2023-04-23T04:33:19.595Z,13.23
2023-04-23T04:34:19.582Z,13.18
2023-04-23T04:35:19.661Z,13.21
2023-04-23T04:36:19.611Z,13.24
2023-04-23T04:37:19.637Z,13.25
2023-04-23T04:38:19.521Z,13.27
2023-04-23T04:39:19.506Z,13.26
2023-04-23T04:40:19.491Z,13.27
2023-04-23T04:41:19.455Z,13.29
2023-04-23T04:42:19.462Z,13.25
2023-04-23T04:43:19.427Z,13.24
2023-04-23T04:44:19.629Z,13.31
2023-04-23T04:45:19.617Z,13.28
2023-04-23T04:46:19.581Z,13.31
2023-04-23T04:47:19.412Z,13.33
2023-04-23T04:48:19.393Z,13.28
2023-04-23T04:49:19.380Z,13.31
2023-04-23T04:50:19.386Z,13.29
2023-04-23T04:51:19.349Z,13.35
2023-04-23T04:52:19.367Z,13.31
2023-04-23T04:53:19.332Z,13.33
2023-04-23T04:54:19.350Z,13.32
2023-04-23T04:55:19.316Z,13.29
2023-04-23T04:56:19.294Z,13.27
2023-04-23T04:57:19.269Z,13.26
2023-04-23T04:58:19.272Z,13.25
2023-04-23T04:59:19.356Z,13.33
2023-04-23T05:00:19.461Z,13.26
2023-04-23T05:01:19.268Z,13.28
2023-04-23T05:02:19.427Z,13.27
2023-04-23T05:03:19.426Z,13.24
2023-04-23T05:04:19.220Z,13.26
2023-04-23T05:05:19.231Z,13.26
2023-04-23T05:06:19.258Z,13.25
2023-04-23T05:07:19.160Z,13.32
2023-04-23T05:08:19.525Z,13.27
2023-04-23T05:09:19.587Z,13.32
2023-04-23T05:10:19.125Z,13.35
2023-04-23T05:11:19.149Z,13.31
2023-04-23T05:12:19.126Z,13.39
2023-04-23T05:13:19.101Z,13.34
2023-04-23T05:14:19.098Z,13.45
2023-04-23T05:15:19.120Z,13.49
2023-04-23T05:16:19.700Z,13.56
2023-04-23T05:17:19.089Z,13.69
2023-04-23T05:18:19.051Z,13.73
2023-04-23T05:19:19.074Z,13.95
2023-04-23T05:20:19.011Z,14.20
2023-04-23T05:21:19.033Z,14.44
2023-04-23T05:22:19.013Z,14.66
2023-04-23T05:23:19.010Z,14.73
2023-04-23T05:24:18.965Z,14.86
2023-04-23T05:25:18.963Z,15.00
2023-04-23T05:26:18.940Z,15.19
2023-04-23T05:27:19.001Z,15.32
2023-04-23T05:28:18.915Z,15.46
2023-04-23T05:29:18.936Z,15.64
2023-04-23T05:30:18.925Z,15.78
2023-04-23T05:31:18.919Z,15.97
2023-04-23T05:32:18.935Z,16.07
2023-04-23T05:33:18.905Z,16.00
2023-04-23T05:34:18.881Z,15.82
2023-04-23T05:35:18.843Z,15.58
2023-04-23T05:36:18.832Z,15.42
2023-04-23T05:37:18.849Z,15.27
2023-04-23T05:38:18.810Z,15.23
2023-04-23T05:39:18.813Z,15.27
2023-04-23T05:40:19.016Z,15.32
2023-04-23T05:41:19.066Z,15.35
2023-04-23T05:42:18.767Z,15.56
2023-04-23T05:43:18.754Z,15.80
2023-04-23T05:44:18.760Z,16.04
2023-04-23T05:45:18.715Z,16.13
2023-04-23T05:46:18.718Z,16.13
2023-04-23T05:47:18.698Z,16.20
2023-04-23T05:48:18.675Z,16.19
2023-04-23T05:49:18.676Z,16.32
2023-04-23T05:50:18.687Z,16.48
2023-04-23T05:51:18.659Z,16.69
2023-04-23T05:52:18.665Z,16.91
2023-04-23T05:53:18.671Z,16.93
2023-04-23T05:54:18.616Z,17.02
2023-04-23T05:55:18.606Z,17.07
2023-04-23T05:56:18.581Z,17.27
2023-04-23T05:57:18.609Z,17.31
2023-04-23T05:58:18.563Z,17.44
2023-04-23T05:59:18.563Z,17.63
2023-04-23T06:00:18.510Z,17.70
2023-04-23T06:01:18.530Z,17.82
2023-04-23T06:02:18.548Z,17.90
2023-04-23T06:03:18.748Z,18.10
2023-04-23T06:04:18.721Z,18.24
2023-04-23T06:05:18.936Z,18.55
2023-04-23T06:06:18.452Z,18.50
2023-04-23T06:07:18.451Z,18.26
2023-04-23T06:08:18.445Z,18.08
2023-04-23T06:09:18.441Z,18.02
2023-04-23T06:10:18.404Z,17.90
2023-04-23T06:11:18.409Z,17.59
2023-04-23T06:12:18.551Z,17.23
2023-04-23T06:13:18.395Z,16.85
2023-04-23T06:14:18.383Z,16.60
2023-04-23T06:15:18.362Z,16.47
2023-04-23T06:16:18.369Z,16.46
2023-04-23T06:17:18.348Z,16.53
2023-04-23T06:18:18.375Z,16.47
2023-04-23T06:19:18.332Z,16.35
2023-04-23T06:20:18.495Z,16.19
2023-04-23T06:21:19.734Z,15.98
2023-04-23T06:22:18.256Z,15.84
2023-04-23T06:23:18.283Z,15.60
2023-04-23T06:24:18.249Z,15.60
2023-04-23T06:25:18.242Z,15.45
2023-04-23T06:26:18.218Z,15.24
2023-04-23T06:27:18.223Z,15.12
2023-04-23T06:28:18.504Z,15.02
2023-04-23T06:29:18.213Z,14.97
2023-04-23T06:30:18.164Z,14.81
2023-04-23T06:31:18.200Z,14.70
2023-04-23T06:32:20.414Z,14.61
2023-04-23T06:33:18.171Z,14.55
2023-04-23T06:34:18.138Z,14.55
2023-04-23T06:35:18.135Z,14.56
2023-04-23T06:36:18.102Z,14.65
2023-04-23T06:37:18.105Z,14.78
2023-04-23T06:38:18.095Z,14.73
2023-04-23T06:39:18.120Z,14.65
2023-04-23T06:40:18.079Z,14.70
2023-04-23T06:41:18.057Z,14.75
2023-04-23T06:42:18.061Z,14.86
2023-04-23T06:43:18.037Z,15.04
2023-04-23T06:44:18.043Z,15.31
2023-04-23T06:45:18.034Z,15.48
2023-04-23T06:46:18.099Z,15.64
2023-04-23T06:47:17.989Z,16.03
2023-04-23T06:48:17.986Z,16.25
2023-04-23T06:49:17.961Z,16.30
2023-04-23T06:50:17.939Z,16.41
2023-04-23T06:51:17.935Z,16.68
2023-04-23T06:52:17.926Z,16.69
2023-04-23T06:53:18.720Z,16.47
2023-04-23T06:54:17.947Z,16.61
2023-04-23T06:55:17.889Z,16.72
2023-04-23T06:56:17.881Z,16.77
2023-04-23T06:57:17.882Z,17.10
2023-04-23T06:58:17.922Z,17.82
2023-04-23T06:59:17.860Z,18.55
2023-04-23T07:00:17.919Z,19.28
2023-04-23T07:01:17.867Z,20.19
2023-04-23T07:02:17.872Z,21.18
2023-04-23T07:03:17.838Z,21.69
2023-04-23T07:04:17.839Z,21.87
2023-04-23T07:05:18.713Z,21.91
2023-04-23T07:06:17.761Z,22.12
2023-04-23T07:07:17.762Z,23.61
2023-04-23T07:08:17.744Z,24.87
2023-04-23T07:09:17.772Z,25.95
2023-04-23T07:10:18.169Z,27.50
2023-04-23T07:11:17.722Z,29.16
2023-04-23T07:12:17.695Z,30.69
2023-04-23T07:13:17.704Z,31.49
2023-04-23T07:14:17.688Z,32.49
2023-04-23T07:15:17.694Z,35.12
2023-04-23T07:16:19.769Z,38.67
2023-04-23T07:17:17.653Z,43.42
2023-04-23T07:18:17.635Z,47.01
2023-04-23T07:19:17.645Z,50.76
2023-04-23T07:20:17.627Z,55.66
2023-04-23T07:21:17.613Z,61.85
2023-04-23T07:22:17.589Z,69.63
2023-04-23T07:23:17.589Z,76.68
2023-04-23T07:24:17.576Z,82.96
2023-04-23T07:25:17.739Z,90.37
2023-04-23T07:26:17.544Z,97.69
2023-04-23T07:27:17.749Z,106.68
2023-04-23T07:28:17.520Z,114.06
2023-04-23T07:29:18.387Z,119.92
2023-04-23T07:30:17.490Z,124.35
2023-04-23T07:31:17.497Z,122.54
2023-04-23T07:32:17.531Z,124.63
2023-04-23T07:33:17.469Z,130.43
2023-04-23T07:34:17.463Z,136.91
2023-04-23T07:35:17.451Z,142.36
2023-04-23T07:36:17.420Z,146.45
2023-04-23T07:37:17.439Z,150.78
2023-04-23T07:38:17.398Z,160.58
2023-04-23T07:39:17.401Z,168.29
2023-04-23T07:40:17.572Z,176.79
2023-04-23T07:41:17.598Z,187.98
2023-04-23T07:42:17.385Z,198.95
2023-04-23T07:43:17.636Z,207.57
2023-04-23T07:44:17.328Z,216.69
2023-04-23T07:45:17.648Z,222.53
2023-04-23T07:46:17.335Z,231.73
2023-04-23T07:47:17.313Z,237.56
2023-04-23T07:48:17.684Z,243.69
2023-04-23T07:49:17.714Z,247.89
2023-04-23T07:50:17.322Z,252.24
2023-04-23T07:51:17.288Z,250.33
2023-04-23T07:52:17.727Z,250.90
2023-04-23T07:53:17.752Z,251.66
2023-04-23T07:54:17.763Z,259.16
2023-04-23T07:55:17.215Z,254.18
2023-04-23T07:56:17.235Z,256.35
2023-04-23T07:57:17.212Z,255.55
2023-04-23T07:58:17.321Z,258.35
2023-04-23T07:59:17.204Z,263.29
2023-04-23T08:00:17.160Z,260.80
2023-04-23T08:01:17.410Z,261.00
2023-04-23T08:02:17.495Z,258.35
2023-04-23T08:03:17.358Z,254.96
2023-04-23T08:04:17.800Z,254.18
2023-04-23T08:05:17.171Z,251.85
2023-04-23T08:06:17.092Z,250.33
2023-04-23T08:07:17.580Z,243.51
2023-04-23T08:08:17.053Z,228.37
2023-04-23T08:09:17.075Z,221.18
2023-04-23T08:10:17.044Z,219.86
2023-04-23T08:11:17.047Z,219.86
2023-04-23T08:12:17.009Z,214.86
2023-04-23T08:13:17.040Z,214.30
2023-04-23T08:14:17.192Z,210.08
2023-04-23T08:15:17.010Z,198.48
2023-04-23T08:16:16.999Z,181.17
2023-04-23T08:17:17.744Z,159.66
2023-04-23T08:18:17.789Z,158.46
2023-04-23T08:19:17.789Z,166.62
2023-04-23T08:20:16.939Z,169.48
2023-04-23T08:21:16.922Z,175.86
2023-04-23T08:22:16.889Z,182.15
2023-04-23T08:23:17.577Z,186.92
2023-04-23T08:24:16.942Z,192.24
2023-04-23T08:25:17.723Z,188.73
2023-04-23T08:26:16.840Z,184.75
2023-04-23T08:27:16.840Z,170.17
2023-04-23T08:28:16.840Z,161.50
2023-04-23T08:29:16.819Z,168.97
2023-04-23T08:30:16.800Z,165.80
2023-04-23T08:31:25.704Z,171.03
2023-04-23T08:32:17.840Z,178.48
2023-04-23T08:33:16.834Z,188.95
2023-04-23T08:34:16.752Z,197.17
2023-04-23T08:35:16.757Z,202.61
2023-04-23T08:36:16.717Z,208.62
2023-04-23T08:37:27.152Z,210.75
2023-04-23T08:38:17.705Z,212.65
2023-04-23T08:39:16.728Z,218.55
2023-04-23T08:40:16.817Z,224.79
2023-04-23T08:41:16.704Z,232.05
2023-04-23T08:42:17.251Z,236.03
2023-04-23T08:43:16.678Z,240.49
2023-04-23T08:44:16.650Z,243.33
2023-04-23T08:45:16.799Z,239.28
2023-04-23T08:46:16.629Z,230.76
2023-04-23T08:47:16.602Z,218.70
2023-04-23T08:48:16.588Z,222.08
2023-04-23T08:49:16.943Z,229.32
2023-04-23T08:50:16.580Z,235.86
2023-04-23T08:51:16.552Z,241.73
2023-04-23T08:52:16.543Z,248.82
2023-04-23T08:53:16.695Z,242.08
2023-04-23T08:54:16.572Z,244.05
2023-04-23T08:55:16.510Z,256.15
2023-04-23T08:56:16.487Z,263.08
2023-04-23T08:57:16.486Z,263.71
2023-04-23T08:58:16.489Z,272.40
2023-04-23T08:59:16.464Z,274.67
2023-04-23T09:00:16.470Z,276.27
2023-04-23T09:01:16.485Z,292.14
2023-04-23T09:02:16.484Z,322.34
2023-04-23T09:03:16.673Z,348.87
2023-04-23T09:04:16.413Z,350.72
2023-04-23T09:05:16.409Z,349.61
2023-04-23T09:06:16.371Z,358.33
2023-04-23T09:07:16.377Z,376.70
2023-04-23T09:08:16.386Z,395.19
2023-04-23T09:09:16.352Z,411.15
2023-04-23T09:10:18.449Z,424.94
2023-04-23T09:11:16.344Z,434.00
2023-04-23T09:12:16.323Z,440.83
2023-04-23T09:13:16.814Z,448.78
2023-04-23T09:14:16.301Z,452.11
2023-04-23T09:15:16.296Z,457.96
2023-04-23T09:16:16.299Z,463.33
2023-04-23T09:17:16.265Z,468.83
2023-04-23T09:18:16.245Z,469.15
2023-04-23T09:19:16.249Z,478.85
2023-04-23T09:20:16.233Z,478.85
2023-04-23T09:21:16.235Z,481.25
2023-04-23T09:22:16.953Z,476.81
2023-04-23T09:23:16.971Z,476.14
2023-04-23T09:24:16.962Z,480.22
2023-04-23T09:25:16.852Z,476.81
2023-04-23T09:26:16.176Z,464.61
2023-04-23T09:27:16.142Z,457.65
2023-04-23T09:28:16.171Z,452.41
2023-04-23T09:29:16.114Z,453.94
2023-04-23T09:30:16.268Z,451.80
2023-04-23T09:31:16.085Z,449.98
2023-04-23T09:32:16.507Z,445.21
2023-04-23T09:33:16.349Z,444.33
2023-04-23T09:34:16.382Z,444.04
2023-04-23T09:35:16.059Z,446.10
2023-04-23T09:36:16.043Z,448.18
2023-04-23T09:37:16.017Z,455.17
2023-04-23T09:38:16.013Z,453.63
2023-04-23T09:39:16.545Z,458.27
2023-04-23T09:40:16.024Z,465.90
2023-04-23T09:41:16.585Z,465.58
2023-04-23T09:42:15.975Z,461.42
2023-04-23T09:43:16.666Z,457.02
2023-04-23T09:44:15.985Z,458.27
2023-04-23T09:45:15.924Z,459.21
2023-04-23T09:46:15.944Z,458.90
2023-04-23T09:47:15.883Z,458.58
2023-04-23T09:48:16.817Z,458.27
2023-04-23T09:49:15.886Z,463.01
2023-04-23T09:50:16.731Z,470.80
2023-04-23T09:51:15.854Z,478.85
2023-04-23T09:52:15.842Z,480.91
2023-04-23T09:53:15.825Z,488.25
2023-04-23T09:54:15.847Z,502.11
2023-04-23T09:55:16.750Z,516.00
2023-04-23T09:56:15.881Z,521.60
2023-04-23T09:57:15.775Z,531.51
2023-04-23T09:58:15.999Z,541.36
2023-04-23T09:59:15.763Z,547.98
2023-04-23T10:00:15.985Z,560.79
2023-04-23T10:01:15.769Z,568.38
2023-04-23T10:02:15.848Z,567.42
2023-04-23T10:03:16.089Z,569.83
2023-04-23T10:04:15.960Z,576.18
2023-04-23T10:05:24.385Z,588.29
2023-04-23T10:06:25.734Z,609.64
2023-04-23T10:07:20.263Z,609.64
2023-04-23T10:08:15.868Z,612.98
2023-04-23T10:09:15.875Z,612.98
2023-04-23T10:10:15.651Z,616.36
2023-04-23T10:13:15.638Z,597.18
2023-04-23T10:14:15.595Z,589.84
2023-04-23T10:15:15.561Z,592.96
2023-04-23T10:16:22.273Z,601.46
2023-04-23T10:17:16.580Z,607.44
2023-04-23T10:18:15.571Z,604.16
2023-04-23T10:19:15.760Z,613.54
2023-04-23T10:20:15.763Z,614.10
2023-04-23T10:21:15.738Z,616.36
2023-04-23T10:22:19.089Z,614.66
2023-04-23T10:23:15.712Z,612.42
2023-04-23T10:24:15.776Z,604.71
2023-04-23T10:25:15.782Z,588.29
2023-04-23T10:26:15.456Z,589.32
2023-04-23T10:27:26.957Z,557.53
2023-04-23T10:28:16.879Z,559.39
2023-04-23T10:29:15.403Z,577.67
2023-04-23T10:30:15.384Z,584.71
2023-04-23T10:31:15.401Z,582.68
2023-04-23T10:32:15.889Z,579.16
2023-04-23T10:33:26.487Z,587.78
2023-04-23T10:34:16.913Z,585.73
2023-04-23T10:35:15.320Z,594.01
2023-04-23T10:36:15.322Z,598.78
2023-04-23T10:37:15.296Z,595.06
2023-04-23T10:38:15.311Z,590.36
2023-04-23T10:39:20.747Z,598.78
2023-04-23T10:40:16.535Z,596.12
2023-04-23T10:41:15.244Z,596.65
2023-04-23T10:42:15.250Z,592.44
2023-04-23T10:43:15.225Z,595.06
2023-04-23T10:44:16.188Z,597.18
2023-04-23T10:45:23.305Z,598.24
2023-04-23T10:46:16.298Z,596.12
2023-04-23T10:47:15.182Z,592.96
2023-04-23T10:48:15.215Z,590.36
2023-04-23T10:49:15.165Z,591.92
2023-04-23T10:50:15.157Z,591.40
2023-04-23T10:52:20.823Z,578.16
2023-04-23T10:53:16.124Z,582.68
2023-04-23T10:54:15.116Z,599.85
2023-04-23T10:55:15.901Z,607.44
2023-04-23T10:56:15.926Z,615.23
2023-04-23T10:57:15.143Z,610.20
2023-04-23T10:58:15.805Z,607.44
2023-04-23T10:59:15.062Z,610.20
2023-04-23T11:00:15.104Z,608.54
2023-04-23T11:01:15.018Z,611.31
2023-04-23T11:02:15.395Z,618.06
2023-04-23T11:03:15.140Z,617.49
2023-04-23T11:04:15.146Z,620.34
2023-04-23T11:05:14.975Z,619.77
2023-04-23T11:06:15.233Z,629.64
2023-04-23T11:07:14.970Z,641.67
2023-04-23T11:08:19.303Z,641.67
2023-04-23T11:09:15.938Z,640.45
2023-04-23T11:10:15.048Z,654.16
2023-04-23T11:11:14.906Z,661.90
2023-04-23T11:12:14.904Z,667.82
2023-04-23T11:13:14.878Z,664.52
2023-04-23T11:14:14.902Z,665.18
2023-04-23T11:15:14.853Z,671.83
2023-04-23T11:16:14.943Z,672.50
2023-04-23T11:17:14.844Z,664.52
2023-04-23T11:18:14.842Z,654.80
2023-04-23T11:19:14.831Z,646.61
2023-04-23T11:20:14.959Z,633.80
2023-04-23T11:21:14.788Z,634.40
2023-04-23T11:22:14.789Z,640.45
2023-04-23T11:23:14.769Z,642.90
2023-04-23T11:24:14.788Z,648.48
2023-04-23T11:25:14.920Z,660.60
2023-04-23T11:26:14.927Z,671.16
2023-04-23T11:27:14.725Z,670.49
2023-04-23T11:28:14.934Z,671.83
2023-04-23T11:29:14.692Z,675.88
2023-04-23T11:30:14.732Z,683.45
2023-04-23T11:31:14.666Z,691.89
2023-04-23T11:32:14.787Z,691.18
2023-04-23T11:33:14.718Z,702.01
2023-04-23T11:34:14.644Z,694.76
2023-04-23T11:35:14.639Z,702.01
2023-04-23T11:36:14.638Z,712.44
2023-04-23T11:37:14.592Z,736.65
2023-04-23T11:38:14.606Z,749.30
2023-04-23T11:39:14.575Z,748.89
2023-04-23T11:40:15.153Z,754.77
2023-04-23T11:41:14.558Z,759.03
2023-04-23T11:42:14.574Z,767.69
2023-04-23T11:43:14.527Z,781.52
2023-04-23T11:44:14.538Z,786.09
2023-04-23T11:45:14.519Z,783.80
2023-04-23T11:46:14.519Z,772.54
2023-04-23T11:47:14.476Z,777.46
2023-04-23T11:48:14.563Z,780.61
2023-04-23T11:49:14.472Z,778.36
2023-04-23T11:50:14.477Z,761.61
2023-04-23T11:51:14.433Z,753.08
2023-04-23T11:52:14.458Z,744.82
2023-04-23T11:53:14.414Z,742.35
2023-04-23T11:54:14.430Z,731.04
2023-04-23T11:55:14.400Z,731.84
2023-04-23T11:56:14.419Z,720.84
2023-04-23T11:57:14.365Z,716.23
2023-04-23T11:58:14.372Z,708.68
2023-04-23T11:59:14.343Z,701.28
2023-04-23T12:00:14.340Z,702.75
2023-04-23T12:01:14.329Z,694.04
2023-04-23T12:02:14.410Z,690.47
2023-04-23T12:03:14.414Z,684.14
2023-04-23T12:04:14.531Z,684.84
2023-04-23T12:05:14.347Z,673.17
2023-04-23T12:06:14.283Z,667.82
2023-04-23T12:07:25.351Z,663.86
2023-04-23T12:08:16.269Z,652.89
2023-04-23T12:09:14.228Z,647.23
2023-04-23T12:10:16.522Z,642.90
2023-04-23T12:11:14.220Z,635.00
2023-04-23T12:12:14.638Z,629.64
2023-04-23T12:13:14.238Z,618.63
2023-04-23T12:14:14.191Z,613.54
2023-04-23T12:15:14.160Z,617.49
2023-04-23T12:16:14.181Z,618.06
2023-04-23T12:17:14.127Z,624.96
2023-04-23T12:18:14.147Z,624.96
2023-04-23T12:19:14.140Z,640.45
2023-04-23T12:20:14.978Z,644.75
2023-04-23T12:21:15.005Z,648.48
2023-04-23T12:22:14.134Z,654.80
2023-04-23T12:23:14.244Z,667.16
2023-04-23T12:24:14.987Z,675.88
2023-04-23T12:25:14.049Z,686.24
2023-04-23T12:26:14.088Z,693.32
2023-04-23T12:27:14.050Z,699.82
2023-04-23T12:28:14.046Z,705.70
2023-04-23T12:29:14.040Z,707.93
2023-04-23T12:30:14.036Z,718.53
2023-04-23T12:31:14.013Z,727.09
2023-04-23T12:32:14.006Z,733.44
2023-04-23T12:33:14.005Z,748.47
2023-04-23T12:34:13.982Z,759.03
2023-04-23T12:35:13.934Z,762.04
2023-04-23T12:36:13.970Z,767.69
2023-04-23T12:37:13.980Z,773.88
2023-04-23T12:38:13.916Z,779.71
2023-04-23T12:39:13.877Z,781.52
2023-04-23T12:40:13.882Z,780.61
2023-04-23T12:41:13.864Z,782.43
2023-04-23T12:42:13.906Z,798.69
2023-04-23T12:43:13.836Z,804.91
2023-04-23T12:44:13.849Z,796.80
2023-04-23T12:45:14.318Z,805.39